createdAt,value
2022-09-12T00:01:37.353Z,2.38
2022-09-12T00:04:05.440Z,2.15
2022-09-12T00:06:34.390Z,2.70
2022-09-12T00:09:03.447Z,2.20
2022-09-12T00:11:32.872Z,2.22
2022-09-12T00:14:01.496Z,2.42
2022-09-12T00:16:30.357Z,2.40
2022-09-12T00:18:58.553Z,2.20
2022-09-12T00:21:26.624Z,2.33
2022-09-12T00:23:54.652Z,2.20
2022-09-12T00:26:22.711Z,2.13
2022-09-12T00:28:52.200Z,2.10
2022-09-12T00:31:21.730Z,2.30
2022-09-12T00:33:49.811Z,2.10
2022-09-12T00:36:19.439Z,2.40
2022-09-12T00:38:47.608Z,2.22
2022-09-12T00:41:17.540Z,2.28
2022-09-12T00:43:46.313Z,2.47
2022-09-12T00:46:22.237Z,2.58
2022-09-12T00:48:51.534Z,2.22
2022-09-12T00:51:19.725Z,2.20
2022-09-12T00:53:48.011Z,2.28
2022-09-12T00:56:16.547Z,2.30
2022-09-12T00:58:45.790Z,2.30
2022-09-12T01:01:14.034Z,1.90
2022-09-12T01:03:43.540Z,2.10
2022-09-12T01:06:16.480Z,2.00
2022-09-12T01:08:44.829Z,2.20
2022-09-12T01:11:13.207Z,2.20
2022-09-12T01:13:41.382Z,2.20
2022-09-12T01:16:09.524Z,2.20
2022-09-12T01:18:48.964Z,2.15
2022-09-12T01:21:20.361Z,1.98
2022-09-12T01:24:20.548Z,1.73
2022-09-12T01:27:15.890Z,2.10
2022-09-12T01:30:05.308Z,2.08
2022-09-12T01:32:40.225Z,2.13
2022-09-12T01:35:12.562Z,1.98
2022-09-12T01:37:42.273Z,2.00
2022-09-12T01:40:15.922Z,2.17
2022-09-12T01:42:47.006Z,1.92
2022-09-12T01:45:17.922Z,1.92
2022-09-12T01:47:47.843Z,1.73
2022-09-12T01:50:17.528Z,1.98
2022-09-12T01:52:48.229Z,2.10
2022-09-12T01:55:19.123Z,2.13
2022-09-12T01:57:50.260Z,2.08
2022-09-12T02:00:18.366Z,1.92
2022-09-12T02:02:50.619Z,2.03
2022-09-12T02:05:20.520Z,2.00
2022-09-12T02:07:49.857Z,1.70
2022-09-12T02:10:19.188Z,2.08
2022-09-12T02:12:49.857Z,1.88
2022-09-12T02:15:19.527Z,1.90
2022-09-12T02:17:50.638Z,1.90
2022-09-12T02:20:37.414Z,1.88
2022-09-12T02:23:11.133Z,2.00
2022-09-12T02:25:39.679Z,1.88
2022-09-12T02:28:10.007Z,1.95
2022-09-12T02:30:41.048Z,1.90
2022-09-12T02:33:13.307Z,1.80
2022-09-12T02:35:44.880Z,1.90
2022-09-12T02:38:14.357Z,1.95
2022-09-12T02:40:42.368Z,1.77
2022-09-12T02:43:10.440Z,1.70
2022-09-12T02:45:38.575Z,1.98
2022-09-12T02:48:09.111Z,2.00
2022-09-12T02:50:38.643Z,1.90
2022-09-12T02:53:06.752Z,1.80
2022-09-12T02:55:35.389Z,1.70
2022-09-12T02:58:03.506Z,1.67
2022-09-12T03:00:32.656Z,2.10
2022-09-12T03:03:20.776Z,1.65
2022-09-12T03:05:53.639Z,1.70
2022-09-12T03:08:45.255Z,1.92
2022-09-12T03:11:28.880Z,1.80
2022-09-12T03:14:02.951Z,1.73
2022-09-12T03:16:35.783Z,1.90
2022-09-12T03:19:07.462Z,1.92
2022-09-12T03:21:39.026Z,1.85
2022-09-12T03:24:12.754Z,1.90
2022-09-12T03:26:43.595Z,2.00
2022-09-12T03:29:11.664Z,1.70
2022-09-12T03:31:40.869Z,1.90
2022-09-12T03:34:13.107Z,1.70
2022-09-12T03:36:43.725Z,1.92
2022-09-12T03:39:11.831Z,1.70
2022-09-12T03:41:39.931Z,1.75
2022-09-12T03:44:07.968Z,1.65
2022-09-12T03:46:36.079Z,1.98
2022-09-12T03:49:04.170Z,1.60
2022-09-12T03:51:32.469Z,1.73
2022-09-12T03:54:01.902Z,1.70
2022-09-12T03:56:30.383Z,1.50
2022-09-12T03:58:58.467Z,1.67
2022-09-12T04:01:26.611Z,1.80
2022-09-12T04:03:54.698Z,1.85
2022-09-12T04:06:23.295Z,1.50
2022-09-12T04:08:51.911Z,1.73
2022-09-12T04:11:21.991Z,1.80
2022-09-12T04:13:50.049Z,1.60
2022-09-12T04:16:18.702Z,1.45
2022-09-12T04:18:47.017Z,1.75
2022-09-12T04:21:15.927Z,1.77
2022-09-12T04:23:44.073Z,1.80
2022-09-12T04:26:13.621Z,1.60
2022-09-12T04:28:43.418Z,1.45
2022-09-12T04:31:13.876Z,2.10
2022-09-12T04:33:41.989Z,2.50
2022-09-12T04:36:11.221Z,2.28
2022-09-12T04:38:39.512Z,2.60
2022-09-12T04:41:13.748Z,2.85
2022-09-12T04:43:43.346Z,2.80
2022-09-12T04:46:12.443Z,2.75
2022-09-12T04:48:40.615Z,2.78
2022-09-12T04:51:10.103Z,3.25
2022-09-12T04:53:38.592Z,3.55
2022-09-12T04:56:07.105Z,3.78
2022-09-12T04:58:35.346Z,4.05
2022-09-12T05:01:09.009Z,4.40
2022-09-12T05:03:38.945Z,4.10
2022-09-12T05:06:08.046Z,4.20
2022-09-12T05:08:36.367Z,4.10
2022-09-12T05:11:04.751Z,4.60
2022-09-12T05:13:32.952Z,4.32
2022-09-12T05:16:01.581Z,4.50
2022-09-12T05:18:32.642Z,4.40
2022-09-12T05:21:01.256Z,4.53
2022-09-12T05:23:29.404Z,4.40
2022-09-12T05:25:58.685Z,4.30
2022-09-12T05:28:29.622Z,4.57
2022-09-12T05:31:04.065Z,4.47
2022-09-12T05:33:34.122Z,4.20
2022-09-12T05:36:02.334Z,4.47
2022-09-12T05:38:30.364Z,4.22
2022-09-12T05:41:04.780Z,3.97
2022-09-12T05:43:33.037Z,4.20
2022-09-12T05:46:05.480Z,4.32
2022-09-12T05:48:35.286Z,4.20
2022-09-12T05:51:03.665Z,4.30
2022-09-12T05:53:32.060Z,4.03
2022-09-12T05:56:07.389Z,4.60
2022-09-12T05:58:35.844Z,4.07
2022-09-12T06:01:07.342Z,4.28
2022-09-12T06:03:37.717Z,4.50
2022-09-12T06:06:06.498Z,4.07
2022-09-12T06:08:34.823Z,3.92
2022-09-12T06:11:03.464Z,3.70
2022-09-12T06:13:32.919Z,3.70
2022-09-12T06:16:05.382Z,4.28
2022-09-12T06:18:33.587Z,4.40
2022-09-12T06:21:05.335Z,4.40
2022-09-12T06:23:33.667Z,4.43
2022-09-12T06:26:01.818Z,4.00
2022-09-12T06:28:29.854Z,3.40
2022-09-12T06:31:04.587Z,3.92
2022-09-12T06:33:33.477Z,4.10
2022-09-12T06:36:12.071Z,3.45
2022-09-12T06:38:40.722Z,3.83
2022-09-12T06:41:09.717Z,3.70
2022-09-12T06:43:37.790Z,3.60
2022-09-12T06:46:06.093Z,4.05
2022-09-12T06:48:37.311Z,3.60
2022-09-12T06:51:11.303Z,3.97
2022-09-12T06:53:39.406Z,3.83
2022-09-12T06:56:08.557Z,3.85
2022-09-12T06:58:36.861Z,3.90
2022-09-12T07:01:05.224Z,4.10
2022-09-12T07:03:33.922Z,3.95
2022-09-12T07:06:04.242Z,3.53
2022-09-12T07:08:34.143Z,3.20
2022-09-12T07:11:08.936Z,3.70
2022-09-12T07:13:36.971Z,3.67
2022-09-12T07:16:05.445Z,3.50
2022-09-12T07:18:33.521Z,3.45
2022-09-12T07:21:02.155Z,3.28
2022-09-12T07:23:30.352Z,3.53
2022-09-12T07:26:00.542Z,3.30
2022-09-12T07:28:30.328Z,3.45
2022-09-12T07:30:58.557Z,3.65
2022-09-12T07:33:28.418Z,3.10
2022-09-12T07:35:56.442Z,9.85
2022-09-12T07:38:25.236Z,8.23
2022-09-12T07:40:53.611Z,8.95
2022-09-12T07:43:23.094Z,13.57
2022-09-12T07:45:56.389Z,13.75
2022-09-12T07:48:24.771Z,12.15
2022-09-12T07:50:59.838Z,14.02
2022-09-12T07:53:28.110Z,14.20
2022-09-12T07:55:56.403Z,12.15
2022-09-12T07:58:25.987Z,13.07
2022-09-12T08:00:54.111Z,12.82
2022-09-12T08:03:22.181Z,12.10
2022-09-12T08:05:50.222Z,12.27
2022-09-12T08:08:18.565Z,12.38
2022-09-12T08:10:46.675Z,12.35
2022-09-12T08:13:14.761Z,11.95
2022-09-12T08:15:44.268Z,11.68
2022-09-12T08:18:12.420Z,11.75
2022-09-12T08:20:40.494Z,12.05
2022-09-12T08:23:08.512Z,11.82
2022-09-12T08:25:36.629Z,11.43
2022-09-12T08:28:04.709Z,10.93
2022-09-12T08:30:32.771Z,11.23
2022-09-12T08:33:02.295Z,11.10
2022-09-12T08:35:30.339Z,10.35
2022-09-12T08:37:58.685Z,10.65
2022-09-12T08:40:26.750Z,10.05
2022-09-12T08:42:58.989Z,10.45
2022-09-12T08:45:29.896Z,10.40
2022-09-12T08:47:57.985Z,9.80
2022-09-12T08:50:27.685Z,10.13
2022-09-12T08:52:59.236Z,10.10
2022-09-12T08:55:33.382Z,9.02
2022-09-12T08:58:01.646Z,9.85
2022-09-12T09:00:38.059Z,9.35
2022-09-12T09:03:29.425Z,9.30
2022-09-12T09:06:01.659Z,8.98
2022-09-12T09:08:41.883Z,8.95
2022-09-12T09:11:20.948Z,9.02
2022-09-12T09:14:13.028Z,8.30
2022-09-12T09:16:41.942Z,8.98
2022-09-12T09:19:12.194Z,8.32
2022-09-12T09:21:44.663Z,8.45
2022-09-12T09:24:14.375Z,8.43
2022-09-12T09:26:46.331Z,7.70
2022-09-12T09:29:19.381Z,7.85
2022-09-12T09:31:49.030Z,7.85
2022-09-12T09:34:19.784Z,7.53
2022-09-12T09:36:52.482Z,7.65
2022-09-12T09:39:34.510Z,8.15
2022-09-12T09:42:26.781Z,7.20
2022-09-12T09:44:55.608Z,7.85
2022-09-12T09:47:23.739Z,6.75
2022-09-12T09:49:51.876Z,7.78
2022-09-12T09:52:25.436Z,7.10
2022-09-12T09:54:57.447Z,7.50
2022-09-12T09:57:46.872Z,7.60
2022-09-12T10:00:29.580Z,7.10
2022-09-12T10:03:23.102Z,6.53
2022-09-12T10:05:52.011Z,6.38
2022-09-12T10:08:26.320Z,6.78
2022-09-12T10:10:55.855Z,6.68
2022-09-12T10:13:27.016Z,6.30
2022-09-12T10:15:59.252Z,6.40
2022-09-12T10:18:35.666Z,6.57
2022-09-12T10:21:07.593Z,6.22
2022-09-12T10:23:37.765Z,6.38
2022-09-12T10:26:09.811Z,6.82
2022-09-12T10:28:39.329Z,6.57
2022-09-12T10:31:07.631Z,7.13
2022-09-12T10:33:37.940Z,7.35
2022-09-12T10:36:06.204Z,7.72
2022-09-12T10:38:34.431Z,8.13
2022-09-12T10:41:04.984Z,8.60
2022-09-12T10:43:37.306Z,7.47
2022-09-12T10:46:25.466Z,7.35
2022-09-12T10:49:13.150Z,7.53
2022-09-12T10:51:41.331Z,7.43
2022-09-12T10:54:10.251Z,7.75
2022-09-12T10:56:42.091Z,7.65
2022-09-12T10:59:20.375Z,7.50
2022-09-12T11:01:49.905Z,8.07
2022-09-12T11:04:24.374Z,7.53
2022-09-12T11:06:59.093Z,8.00
2022-09-12T11:09:29.429Z,7.88
2022-09-12T11:12:03.462Z,7.15
2022-09-12T11:14:41.206Z,8.00
2022-09-12T11:17:17.091Z,6.88
2022-09-12T11:19:51.436Z,6.90
2022-09-12T11:22:29.837Z,7.00
2022-09-12T11:25:12.741Z,7.63
2022-09-12T11:27:50.672Z,6.80
2022-09-12T11:30:19.190Z,6.30
2022-09-12T11:33:24.639Z,6.35
2022-09-12T11:35:55.433Z,6.55
2022-09-12T11:38:48.260Z,6.95
2022-09-12T11:41:18.493Z,6.50
2022-09-12T11:43:49.750Z,6.50
2022-09-12T11:46:20.373Z,5.93
2022-09-12T11:48:52.308Z,5.90
2022-09-12T11:51:21.222Z,6.32
2022-09-12T11:53:58.406Z,6.25
2022-09-12T11:56:26.619Z,6.05
2022-09-12T11:59:05.800Z,5.75
2022-09-12T12:01:41.286Z,5.95
2022-09-12T12:04:13.257Z,6.45
2022-09-12T12:06:49.009Z,5.75
2022-09-12T12:09:17.742Z,5.72
2022-09-12T12:11:48.847Z,5.80
2022-09-12T12:14:19.498Z,5.63
2022-09-12T12:16:47.533Z,4.88
2022-09-12T12:19:32.707Z,5.57
2022-09-12T12:22:10.038Z,5.00
2022-09-12T12:24:54.510Z,5.40
2022-09-12T12:27:26.658Z,4.72
2022-09-12T12:29:56.116Z,5.00
2022-09-12T12:32:27.381Z,4.93
2022-09-12T12:35:37.879Z,5.07
2022-09-12T12:38:06.778Z,5.10
2022-09-12T12:40:34.886Z,4.68
2022-09-12T12:43:15.881Z,4.82
2022-09-12T12:46:13.186Z,4.90
2022-09-12T12:49:10.244Z,4.82
2022-09-12T12:51:57.191Z,4.93
2022-09-12T12:54:29.917Z,4.93
2022-09-12T12:57:17.523Z,4.65
2022-09-12T12:59:50.249Z,4.60
2022-09-12T13:02:25.509Z,4.38
2022-09-12T13:04:53.784Z,4.03
2022-09-12T13:07:31.045Z,4.15
2022-09-12T13:09:59.487Z,4.00
2022-09-12T13:12:28.981Z,4.25
2022-09-12T13:14:58.381Z,4.40
2022-09-12T13:17:30.804Z,4.20
2022-09-12T13:20:27.717Z,4.35
2022-09-12T13:22:56.755Z,3.92
2022-09-12T13:25:31.904Z,3.83
2022-09-12T13:28:06.153Z,4.03
2022-09-12T13:30:35.430Z,3.55
2022-09-12T13:33:12.272Z,4.25
2022-09-12T13:35:44.565Z,4.03
2022-09-12T13:38:14.105Z,3.97
2022-09-12T13:40:45.930Z,3.63
2022-09-12T13:43:15.917Z,3.92
2022-09-12T13:45:44.740Z,3.92
2022-09-12T13:48:16.729Z,3.72
2022-09-12T13:50:48.674Z,3.53
2022-09-12T13:53:18.446Z,3.78
2022-09-12T13:55:48.171Z,3.75
2022-09-12T13:58:22.252Z,3.83
2022-09-12T14:01:02.071Z,3.80
2022-09-12T14:03:50.174Z,3.53
2022-09-12T14:06:27.619Z,3.40
2022-09-12T14:08:56.904Z,3.58
2022-09-12T14:11:29.792Z,3.70
2022-09-12T14:13:57.965Z,3.88
2022-09-12T14:16:27.146Z,3.78
2022-09-12T14:18:57.117Z,3.58
2022-09-12T14:21:33.994Z,3.22
2022-09-12T14:24:02.461Z,3.38
2022-09-12T14:26:33.432Z,3.70
2022-09-12T14:29:01.774Z,4.07
2022-09-12T14:31:31.342Z,3.55
2022-09-12T14:34:12.050Z,3.20
2022-09-12T14:36:43.388Z,3.17
2022-09-12T14:39:23.794Z,3.50
2022-09-12T14:41:52.104Z,3.00
2022-09-12T14:44:21.917Z,2.80
2022-09-12T14:46:49.989Z,3.47
2022-09-12T14:49:21.044Z,3.13
2022-09-12T14:51:55.578Z,2.85
2022-09-12T14:54:39.575Z,2.92
2022-09-12T14:57:09.255Z,2.90
2022-09-12T14:59:39.068Z,3.28
2022-09-12T15:02:20.541Z,3.10
2022-09-12T15:04:51.098Z,3.22
2022-09-12T15:07:26.091Z,3.15
2022-09-12T15:09:54.271Z,2.75
2022-09-12T15:12:22.357Z,3.17
2022-09-12T15:14:50.457Z,3.13
2022-09-12T15:17:18.546Z,3.03
2022-09-12T15:19:46.644Z,2.60
2022-09-12T15:22:16.104Z,2.95
2022-09-12T15:24:44.232Z,3.28
2022-09-12T15:27:12.926Z,2.60
2022-09-12T15:29:40.986Z,2.60
2022-09-12T15:32:12.331Z,2.60
2022-09-12T15:34:40.448Z,2.72
2022-09-12T15:37:10.924Z,3.10
2022-09-12T15:39:40.855Z,2.90
2022-09-12T15:42:10.194Z,2.70
2022-09-12T15:44:38.291Z,3.22
2022-09-12T15:47:06.579Z,2.83
2022-09-12T15:49:34.667Z,2.97
2022-09-12T15:52:03.148Z,2.83
2022-09-12T15:54:31.194Z,2.60
2022-09-12T15:57:00.672Z,2.58
2022-09-12T15:59:28.755Z,2.88
2022-09-12T16:01:56.964Z,2.75
2022-09-12T16:04:25.693Z,2.65
2022-09-12T16:06:54.128Z,2.63
2022-09-12T16:09:22.430Z,3.00
2022-09-12T16:11:50.691Z,2.88
2022-09-12T16:14:20.397Z,2.63
2022-09-12T16:16:53.083Z,2.53
2022-09-12T16:19:21.347Z,2.65
2022-09-12T16:21:49.424Z,2.65
2022-09-12T16:24:17.536Z,2.28
2022-09-12T16:26:45.699Z,2.47
2022-09-12T16:29:13.985Z,2.50
2022-09-12T16:31:43.386Z,2.60
2022-09-12T16:34:11.946Z,2.55
2022-09-12T16:36:40.060Z,2.58
2022-09-12T16:39:08.134Z,2.80
2022-09-12T16:41:36.216Z,2.50
2022-09-12T16:44:04.518Z,2.53
2022-09-12T16:46:32.653Z,2.67
2022-09-12T16:49:02.180Z,2.47
2022-09-12T16:51:32.640Z,2.58
2022-09-12T16:54:00.758Z,2.40
2022-09-12T16:56:28.934Z,2.40
2022-09-12T16:58:57.124Z,2.45
2022-09-12T17:01:26.086Z,2.70
2022-09-12T17:03:54.877Z,2.35
2022-09-12T17:06:25.184Z,2.28
2022-09-12T17:08:54.068Z,2.40
2022-09-12T17:11:23.097Z,2.30
2022-09-12T17:14:07.473Z,2.40
2022-09-12T17:16:36.427Z,2.70
2022-09-12T17:19:04.699Z,2.90
2022-09-12T17:21:34.241Z,2.25
2022-09-12T17:24:03.347Z,2.60
2022-09-12T17:26:31.592Z,2.83
2022-09-12T17:28:59.667Z,2.42
2022-09-12T17:31:27.849Z,2.67
2022-09-12T17:33:58.108Z,2.72
2022-09-12T17:36:26.644Z,3.00
2022-09-12T17:38:56.271Z,2.47
2022-09-12T17:41:25.438Z,2.60
2022-09-12T17:43:55.648Z,2.65
2022-09-12T17:46:24.310Z,2.80
2022-09-12T17:48:53.545Z,2.90
2022-09-12T17:51:22.033Z,2.63
2022-09-12T17:53:50.127Z,2.75
2022-09-12T17:56:20.323Z,2.67
2022-09-12T17:58:50.645Z,3.00
2022-09-12T18:01:36.362Z,2.80
2022-09-12T18:04:04.824Z,2.80
2022-09-12T18:06:33.561Z,2.92
2022-09-12T18:09:02.360Z,3.20
2022-09-12T18:11:32.041Z,2.80
2022-09-12T18:14:00.285Z,2.58
2022-09-12T18:16:29.349Z,2.67
2022-09-12T18:18:57.931Z,2.67
2022-09-12T18:21:28.540Z,2.55
2022-09-12T18:23:57.452Z,2.60
2022-09-12T18:26:26.724Z,2.78
2022-09-12T18:28:56.423Z,2.55
2022-09-12T18:31:26.618Z,2.92
2022-09-12T18:33:55.142Z,2.88
2022-09-12T18:36:23.521Z,2.72
2022-09-12T18:38:51.735Z,2.90
2022-09-12T18:41:20.711Z,2.78
2022-09-12T18:43:51.149Z,2.90
2022-09-12T18:46:20.804Z,2.58
2022-09-12T18:48:49.045Z,2.72
2022-09-12T18:51:17.886Z,2.92
2022-09-12T18:53:49.872Z,2.55
2022-09-12T18:56:18.431Z,2.60
2022-09-12T18:58:49.952Z,2.97
2022-09-12T19:01:21.762Z,2.78
2022-09-12T19:03:52.129Z,2.53
2022-09-12T19:06:21.355Z,2.90
2022-09-12T19:08:49.861Z,2.85
2022-09-12T19:11:18.318Z,2.72
2022-09-12T19:13:47.200Z,2.95
2022-09-12T19:16:16.855Z,2.80
2022-09-12T19:18:45.449Z,2.78
2022-09-12T19:21:16.224Z,2.88
2022-09-12T19:23:45.289Z,3.17
2022-09-12T19:26:14.267Z,2.70
2022-09-12T19:28:42.763Z,2.40
2022-09-12T19:31:11.897Z,2.88
2022-09-12T19:33:40.057Z,2.47
2022-09-12T19:36:22.167Z,2.70
2022-09-12T19:38:57.106Z,3.20
2022-09-12T19:41:26.388Z,2.97
2022-09-12T19:43:55.705Z,2.80
2022-09-12T19:46:24.537Z,2.58
2022-09-12T19:48:58.901Z,2.60
2022-09-12T19:51:27.230Z,2.70
2022-09-12T19:53:56.703Z,2.70
2022-09-12T19:56:24.784Z,3.00
2022-09-12T19:58:56.351Z,2.92
2022-09-12T20:01:28.061Z,3.30
2022-09-12T20:03:56.719Z,4.22
2022-09-12T20:06:24.903Z,4.78
2022-09-12T20:08:52.985Z,5.47
2022-09-12T20:11:23.731Z,4.90
2022-09-12T20:13:51.986Z,5.45
2022-09-12T20:16:22.299Z,5.28
2022-09-12T20:18:54.006Z,5.20
2022-09-12T20:21:25.044Z,5.00
2022-09-12T20:23:53.263Z,5.38
2022-09-12T20:26:24.926Z,5.25
2022-09-12T20:28:52.997Z,5.68
2022-09-12T20:31:21.165Z,5.18
2022-09-12T20:33:51.713Z,5.15
2022-09-12T20:36:21.290Z,5.60
2022-09-12T20:38:50.077Z,5.40
2022-09-12T20:41:18.453Z,5.40
2022-09-12T20:43:50.061Z,5.45
2022-09-12T20:46:21.611Z,5.20
2022-09-12T20:48:50.556Z,4.88
2022-09-12T20:51:18.908Z,5.13
2022-09-12T20:53:47.160Z,4.93
2022-09-12T20:56:15.312Z,5.63
2022-09-12T20:58:44.626Z,5.43
2022-09-12T21:01:15.915Z,5.90
2022-09-12T21:03:44.631Z,5.85
2022-09-12T21:06:13.515Z,5.88
2022-09-12T21:08:41.638Z,5.65
2022-09-12T21:11:09.783Z,6.57
2022-09-12T21:13:37.936Z,6.13
2022-09-12T21:16:06.992Z,6.68
2022-09-12T21:18:36.682Z,6.22
2022-09-12T21:21:05.069Z,6.45
2022-09-12T21:23:33.550Z,6.45
2022-09-12T21:26:01.755Z,6.30
2022-09-12T21:28:29.748Z,6.90
2022-09-12T21:30:57.792Z,6.07
2022-09-12T21:33:25.883Z,6.63
2022-09-12T21:35:55.278Z,5.90
2022-09-12T21:38:23.267Z,6.53
2022-09-12T21:40:51.313Z,6.50
2022-09-12T21:43:19.500Z,6.50
2022-09-12T21:45:47.550Z,6.00
2022-09-12T21:48:15.558Z,6.32
2022-09-12T21:50:43.692Z,6.45
2022-09-12T21:53:13.211Z,6.38
2022-09-12T21:55:41.241Z,5.93
2022-09-12T21:58:09.255Z,6.60
2022-09-12T22:00:37.335Z,6.05
2022-09-12T22:03:05.687Z,6.28
2022-09-12T22:05:34.382Z,6.10
2022-09-12T22:08:02.926Z,5.88
2022-09-12T22:10:32.290Z,6.30
2022-09-12T22:13:00.422Z,6.38
2022-09-12T22:15:43.836Z,6.40
2022-09-12T22:18:11.839Z,6.63
2022-09-12T22:20:39.796Z,6.22
2022-09-12T22:23:25.378Z,7.20
2022-09-12T22:25:56.046Z,6.35
2022-09-12T22:28:24.479Z,6.22
2022-09-12T22:30:54.358Z,6.22
2022-09-12T22:33:22.464Z,6.40
2022-09-12T22:35:50.433Z,6.10
2022-09-12T22:38:18.510Z,6.72
2022-09-12T22:40:46.534Z,5.95
2022-09-12T22:43:15.932Z,6.40
2022-09-12T22:45:43.929Z,6.95
2022-09-12T22:48:11.925Z,6.45
2022-09-12T22:50:39.908Z,6.03
2022-09-12T22:53:07.910Z,6.85
2022-09-12T22:55:35.943Z,6.38
2022-09-12T22:58:04.812Z,6.60
2022-09-12T23:00:34.606Z,6.30
2022-09-12T23:03:02.702Z,6.35
2022-09-12T23:05:30.804Z,6.75
2022-09-12T23:07:58.967Z,6.38
2022-09-12T23:10:27.545Z,6.32
2022-09-12T23:12:55.701Z,6.53
2022-09-12T23:15:23.718Z,6.15
2022-09-12T23:17:53.103Z,6.25
2022-09-12T23:20:21.159Z,6.78
2022-09-12T23:22:49.149Z,6.20
2022-09-12T23:25:17.703Z,6.30
2022-09-12T23:27:45.701Z,6.65
2022-09-12T23:30:13.898Z,6.57
2022-09-12T23:32:41.906Z,5.65
2022-09-12T23:35:11.279Z,6.70
2022-09-12T23:37:39.302Z,6.55
2022-09-12T23:40:09.064Z,7.05
2022-09-12T23:42:37.517Z,6.80
2022-09-12T23:45:05.949Z,6.75
2022-09-12T23:47:33.934Z,6.75
2022-09-12T23:50:01.962Z,6.50
2022-09-12T23:52:31.341Z,6.60
2022-09-12T23:54:59.321Z,6.30
2022-09-12T23:57:27.667Z,6.38
2022-09-12T23:59:55.689Z,6.78
